X  Luk Metar data     EKBI Billund Airport
Temperatur
1°C Temperatur
1°C Duggpunkt
100% Fugtighed



Vind
1 M/S
3 MPT
5 KM/T
3 KNOB



340°
NNV
Nuværende forhold

Let  Regn Let Regn
Tryk 993.92 (hPa) - 29.35 (inHg)
Sigt 5 (mil) - 8 (km)
Lufthavn
Lufthavnskode EKBI

Lokation: Billund Airport
Afstand: 20 (km)

Metar:
EKBI 280420Z AUTO 34003KT 8000 -RA OVC003/// 01/01 Q0994

Tid: 28-11-2021 05:20 CET